createdAt,value
2017-07-22T00:01:09.191Z,20.20
2017-07-22T00:03:36.946Z,20.10
2017-07-22T00:06:04.777Z,20.10
2017-07-22T00:08:32.537Z,20.20
2017-07-22T00:11:00.302Z,20.20
2017-07-22T00:13:28.091Z,20.20
2017-07-22T00:15:55.850Z,20.20
2017-07-22T00:18:23.678Z,20.30
2017-07-22T00:20:51.450Z,20.20
2017-07-22T00:23:19.218Z,20.20
2017-07-22T00:25:47.002Z,20.20
2017-07-22T00:28:14.762Z,20.20
2017-07-22T00:30:42.582Z,20.20
2017-07-22T00:33:10.343Z,20.10
2017-07-22T00:35:38.103Z,20.10
2017-07-22T00:38:05.899Z,20.20
2017-07-22T00:40:33.657Z,20.00
2017-07-22T00:43:01.472Z,20.00
2017-07-22T00:45:29.999Z,20.00
2017-07-22T00:47:57.760Z,20.00
2017-07-22T00:50:25.550Z,19.90
2017-07-22T00:52:53.313Z,19.80
2017-07-22T00:55:21.137Z,19.70
2017-07-22T00:57:48.899Z,19.70
2017-07-22T01:00:16.658Z,19.60
2017-07-22T01:02:44.458Z,19.70
2017-07-22T01:05:12.226Z,19.60
2017-07-22T01:07:40.039Z,19.50
2017-07-22T01:10:07.802Z,19.50
2017-07-22T01:12:35.565Z,19.50
2017-07-22T01:15:03.354Z,19.40
2017-07-22T01:17:31.112Z,19.30
2017-07-22T01:19:58.939Z,19.40
2017-07-22T01:22:26.703Z,19.40
2017-07-22T01:24:54.461Z,19.30
2017-07-22T01:27:22.256Z,19.30
2017-07-22T01:29:50.030Z,19.30
2017-07-22T01:32:17.901Z,19.30
2017-07-22T01:34:45.659Z,19.30
2017-07-22T01:37:13.424Z,19.30
2017-07-22T01:39:41.222Z,19.30
2017-07-22T01:42:08.999Z,19.30
2017-07-22T01:44:36.818Z,19.20
2017-07-22T01:47:04.583Z,19.20
2017-07-22T01:49:32.354Z,19.30
2017-07-22T01:52:00.910Z,19.30
2017-07-22T01:54:28.675Z,19.30
2017-07-22T01:56:56.781Z,19.20
2017-07-22T01:59:24.553Z,19.20
2017-07-22T02:01:52.318Z,19.20
2017-07-22T02:04:20.117Z,19.10
2017-07-22T02:06:47.875Z,19.10
2017-07-22T02:09:15.698Z,19.10
2017-07-22T02:11:43.459Z,19.10
2017-07-22T02:14:11.222Z,19.00
2017-07-22T02:16:39.010Z,19.00
2017-07-22T02:19:06.777Z,18.90
2017-07-22T02:21:34.602Z,18.90
2017-07-22T02:24:02.392Z,18.90
2017-07-22T02:26:30.171Z,18.80
2017-07-22T02:28:57.971Z,18.70
2017-07-22T02:31:26.498Z,18.70
2017-07-22T02:33:55.527Z,18.70
2017-07-22T02:36:24.147Z,18.70
2017-07-22T02:38:51.909Z,18.60
2017-07-22T02:41:19.699Z,18.60
2017-07-22T02:43:47.454Z,18.50
2017-07-22T02:46:15.274Z,18.40
2017-07-22T02:48:43.042Z,18.30
2017-07-22T02:51:11.565Z,18.40
2017-07-22T02:53:39.354Z,18.40
2017-07-22T02:56:07.119Z,18.40
2017-07-22T02:58:34.943Z,18.40
2017-07-22T03:01:02.718Z,18.40
2017-07-22T03:03:30.478Z,18.40
2017-07-22T03:05:58.270Z,18.50
2017-07-22T03:08:26.083Z,18.50
2017-07-22T03:10:53.902Z,18.40
2017-07-22T03:13:22.447Z,18.30
2017-07-22T03:15:50.209Z,18.30
2017-07-22T03:18:18.008Z,18.30
2017-07-22T03:20:46.534Z,18.30
2017-07-22T03:23:14.361Z,18.30
2017-07-22T03:25:42.878Z,18.40
2017-07-22T03:28:10.637Z,18.40
2017-07-22T03:30:38.455Z,18.50
2017-07-22T03:33:06.998Z,18.50
2017-07-22T03:35:34.813Z,18.50
2017-07-22T03:38:02.578Z,18.50
2017-07-22T03:40:30.346Z,18.60
2017-07-22T03:42:58.139Z,18.80
2017-07-22T03:45:25.918Z,19.10
2017-07-22T03:47:53.737Z,19.60
2017-07-22T03:50:21.502Z,20.10
2017-07-22T03:52:49.272Z,20.70
2017-07-22T03:55:17.071Z,21.10
2017-07-22T03:57:44.830Z,21.10
2017-07-22T04:00:12.650Z,21.20
2017-07-22T04:02:40.406Z,21.20
2017-07-22T04:05:08.161Z,21.40
2017-07-22T04:07:35.950Z,21.80
2017-07-22T04:10:03.710Z,22.00
2017-07-22T04:12:31.522Z,22.40
2017-07-22T04:14:59.280Z,22.50
2017-07-22T04:17:27.802Z,22.60
2017-07-22T04:19:55.592Z,22.60
2017-07-22T04:22:23.351Z,22.90
2017-07-22T04:24:51.165Z,23.30
2017-07-22T04:27:18.927Z,23.60
2017-07-22T04:29:46.694Z,23.60
2017-07-22T04:32:14.481Z,23.80
2017-07-22T04:34:42.243Z,24.20
2017-07-22T04:37:10.065Z,24.50
2017-07-22T04:39:38.601Z,24.50
2017-07-22T04:42:06.366Z,24.50
2017-07-22T04:44:34.162Z,24.00
2017-07-22T04:47:02.686Z,23.90
2017-07-22T04:49:30.509Z,23.90
2017-07-22T04:51:59.029Z,24.00
2017-07-22T04:54:26.794Z,23.90
2017-07-22T04:56:54.585Z,23.80
2017-07-22T04:59:22.342Z,23.80
2017-07-22T05:01:50.167Z,24.00
2017-07-22T05:04:17.928Z,24.20
2017-07-22T05:06:45.694Z,24.50
2017-07-22T05:09:13.482Z,24.60
2017-07-22T05:11:41.239Z,25.00
2017-07-22T05:14:09.048Z,25.40
2017-07-22T05:16:37.574Z,25.70
2017-07-22T05:19:05.330Z,25.70
2017-07-22T05:21:33.126Z,26.30
2017-07-22T05:24:00.894Z,26.30
2017-07-22T05:26:28.726Z,26.80
2017-07-22T05:28:56.486Z,27.70
2017-07-22T05:31:24.257Z,28.30
2017-07-22T05:33:52.061Z,28.60
2017-07-22T05:36:20.590Z,29.50
2017-07-22T05:38:48.410Z,29.50
2017-07-22T05:41:16.174Z,29.80
2017-07-22T05:43:43.939Z,30.30
2017-07-22T05:46:11.743Z,30.60
2017-07-22T05:48:39.505Z,31.60
2017-07-22T05:51:07.334Z,32.70
2017-07-22T05:53:35.103Z,32.60
2017-07-22T05:56:02.866Z,32.40
2017-07-22T05:58:30.671Z,33.60
2017-07-22T06:00:58.444Z,34.00
2017-07-22T06:03:27.029Z,35.40
2017-07-22T06:05:54.788Z,35.40
2017-07-22T06:08:22.553Z,35.90
2017-07-22T06:10:50.342Z,36.00
2017-07-22T06:13:18.106Z,36.50
2017-07-22T06:15:45.944Z,36.70
2017-07-22T06:18:14.480Z,36.50
2017-07-22T06:20:42.237Z,36.50
2017-07-22T06:23:10.031Z,37.70
2017-07-22T06:25:37.791Z,37.20
2017-07-22T06:28:05.599Z,37.50
2017-07-22T06:30:33.353Z,38.20
2017-07-22T06:33:01.114Z,38.60
2017-07-22T06:35:28.907Z,38.80
2017-07-22T06:37:56.662Z,37.60
2017-07-22T06:40:24.478Z,37.90
2017-07-22T06:42:52.999Z,38.00
2017-07-22T06:45:20.755Z,38.00
2017-07-22T06:47:48.537Z,38.90
2017-07-22T06:50:16.306Z,39.20
2017-07-22T06:52:44.115Z,38.50
2017-07-22T06:55:12.639Z,38.30
2017-07-22T06:57:40.395Z,38.30
2017-07-22T07:00:08.185Z,38.60
2017-07-22T07:02:35.944Z,38.50
2017-07-22T07:05:03.757Z,39.40
2017-07-22T07:07:31.505Z,39.80
2017-07-22T07:10:00.036Z,40.20
2017-07-22T07:12:27.834Z,40.20
2017-07-22T07:14:56.355Z,40.50
2017-07-22T07:17:24.165Z,40.50
2017-07-22T07:19:51.927Z,41.60
2017-07-22T07:22:19.684Z,40.30
2017-07-22T07:24:47.469Z,39.90
2017-07-22T07:27:15.228Z,39.60
2017-07-22T07:29:43.796Z,41.40
2017-07-22T07:32:11.547Z,41.30
2017-07-22T07:34:39.303Z,40.80
2017-07-22T07:37:07.090Z,41.20
2017-07-22T07:39:34.842Z,39.80
2017-07-22T07:42:04.439Z,40.20
2017-07-22T07:44:33.528Z,39.90
2017-07-22T07:47:01.288Z,39.80
2017-07-22T07:49:29.089Z,39.60
2017-07-22T07:51:56.846Z,39.60
2017-07-22T07:54:24.661Z,39.00
2017-07-22T07:56:52.416Z,38.70
2017-07-22T07:59:20.177Z,39.20
2017-07-22T08:01:47.959Z,39.60
2017-07-22T08:04:15.715Z,40.10
2017-07-22T08:06:43.568Z,40.50
2017-07-22T08:09:11.415Z,39.90
2017-07-22T08:11:39.179Z,39.60
2017-07-22T08:14:07.145Z,39.50
2017-07-22T08:16:34.948Z,40.60
2017-07-22T08:19:02.813Z,40.40
2017-07-22T08:21:31.375Z,41.00
2017-07-22T08:23:59.180Z,41.00
2017-07-22T08:26:26.991Z,40.90
2017-07-22T08:28:54.757Z,39.20
2017-07-22T08:31:22.597Z,38.70
2017-07-22T08:33:50.366Z,39.10
2017-07-22T08:36:18.122Z,39.40
2017-07-22T08:38:45.982Z,39.20
2017-07-22T08:41:13.828Z,39.70
2017-07-22T08:43:41.663Z,40.30
2017-07-22T08:46:10.202Z,41.00
2017-07-22T08:48:38.014Z,41.00
2017-07-22T08:51:05.825Z,40.00
2017-07-22T08:53:33.667Z,40.00
2017-07-22T08:56:01.485Z,39.30
2017-07-22T08:58:30.070Z,38.20
2017-07-22T09:00:58.595Z,38.80
2017-07-22T09:03:26.383Z,38.80
2017-07-22T09:05:54.202Z,38.30
2017-07-22T09:08:21.996Z,37.40
2017-07-22T09:10:49.853Z,38.30
2017-07-22T09:13:17.630Z,38.50
2017-07-22T09:15:45.386Z,38.00
2017-07-22T09:18:13.197Z,37.80
2017-07-22T09:20:40.958Z,37.60
2017-07-22T09:23:08.791Z,37.70
2017-07-22T09:25:36.553Z,37.20
2017-07-22T09:28:04.311Z,36.90
2017-07-22T09:30:32.133Z,36.50
2017-07-22T09:32:59.891Z,35.60
2017-07-22T09:35:27.746Z,35.50
2017-07-22T09:37:55.517Z,35.50
2017-07-22T09:40:23.293Z,34.50
2017-07-22T09:42:51.106Z,33.50
2017-07-22T09:45:21.138Z,32.40
2017-07-22T09:47:48.917Z,31.80
2017-07-22T09:50:16.758Z,30.90
2017-07-22T09:52:44.510Z,31.20
2017-07-22T09:55:12.308Z,31.50
2017-07-22T09:57:40.062Z,31.50
2017-07-22T10:00:07.827Z,31.00
2017-07-22T10:02:35.609Z,30.70
2017-07-22T10:05:03.382Z,30.50
2017-07-22T10:07:31.134Z,30.70
2017-07-22T10:09:58.917Z,30.50
2017-07-22T10:12:26.679Z,30.60
2017-07-22T10:14:54.438Z,30.20
2017-07-22T10:17:22.284Z,30.30
2017-07-22T10:19:50.041Z,31.00
2017-07-22T10:22:17.798Z,31.40
2017-07-22T10:24:45.612Z,31.00
2017-07-22T10:27:13.372Z,30.70
2017-07-22T10:29:41.908Z,31.00
2017-07-22T10:32:09.698Z,31.00
2017-07-22T10:34:38.222Z,30.30
2017-07-22T10:37:05.973Z,30.30
2017-07-22T10:39:33.762Z,30.30
2017-07-22T10:42:01.521Z,30.40
2017-07-22T10:44:29.279Z,30.50
2017-07-22T10:46:57.065Z,30.80
2017-07-22T10:49:24.819Z,30.90
2017-07-22T10:51:52.599Z,30.90
2017-07-22T10:54:20.385Z,31.10
2017-07-22T10:56:48.914Z,30.90
2017-07-22T10:59:16.672Z,30.90
2017-07-22T11:01:44.466Z,30.70
2017-07-22T11:04:12.989Z,30.50
2017-07-22T11:06:40.747Z,30.40
2017-07-22T11:09:08.538Z,30.30
2017-07-22T11:11:36.315Z,30.60
2017-07-22T11:14:04.083Z,30.70
2017-07-22T11:16:31.874Z,30.70
2017-07-22T11:19:00.410Z,30.80
2017-07-22T11:21:28.186Z,30.70
2017-07-22T11:23:55.975Z,31.00
2017-07-22T11:26:24.502Z,31.40
2017-07-22T11:28:52.315Z,31.40
2017-07-22T11:31:20.080Z,31.70
2017-07-22T11:33:47.843Z,31.70
2017-07-22T11:36:15.638Z,31.60
2017-07-22T11:38:43.393Z,31.00
2017-07-22T11:41:11.204Z,30.80
2017-07-22T11:43:38.962Z,31.00
2017-07-22T11:46:06.725Z,31.40
2017-07-22T11:48:34.510Z,31.10
2017-07-22T11:51:03.038Z,30.90
2017-07-22T11:53:30.855Z,30.80
2017-07-22T11:55:59.375Z,31.40
2017-07-22T11:58:27.142Z,31.40
2017-07-22T12:00:54.933Z,31.60
2017-07-22T12:03:22.703Z,31.70
2017-07-22T12:05:51.316Z,31.80
2017-07-22T12:08:19.078Z,31.80
2017-07-22T12:10:46.849Z,31.40
2017-07-22T12:13:14.641Z,30.90
2017-07-22T12:15:42.395Z,30.90
2017-07-22T12:18:10.213Z,31.00
2017-07-22T12:20:37.978Z,31.10
2017-07-22T12:23:05.734Z,30.70
2017-07-22T12:25:34.287Z,30.40
2017-07-22T12:28:02.050Z,30.40
2017-07-22T12:30:29.858Z,30.30
2017-07-22T12:32:57.660Z,30.20
2017-07-22T12:35:25.422Z,30.00
2017-07-22T12:37:53.212Z,30.00
2017-07-22T12:40:20.966Z,30.10
2017-07-22T12:42:48.776Z,30.30
2017-07-22T12:45:16.529Z,30.60
2017-07-22T12:47:44.281Z,30.60
2017-07-22T12:50:12.107Z,30.50
2017-07-22T12:52:39.862Z,30.80
2017-07-22T12:55:07.676Z,31.00
2017-07-22T12:57:35.436Z,31.30
2017-07-22T13:00:03.196Z,31.40
2017-07-22T13:02:30.989Z,31.70
2017-07-22T13:04:58.750Z,31.80
2017-07-22T13:07:26.601Z,31.70
2017-07-22T13:09:54.356Z,31.70
2017-07-22T13:12:22.118Z,31.70
2017-07-22T13:14:49.905Z,31.70
2017-07-22T13:17:17.691Z,32.00
2017-07-22T13:19:46.286Z,32.20
2017-07-22T13:22:14.057Z,32.10
2017-07-22T13:24:41.859Z,32.00
2017-07-22T13:27:09.653Z,32.00
2017-07-22T13:29:37.413Z,32.10
2017-07-22T13:32:05.231Z,32.00
2017-07-22T13:34:32.996Z,32.30
2017-07-22T13:37:00.758Z,32.10
2017-07-22T13:39:28.552Z,32.10
2017-07-22T13:41:56.311Z,31.80
2017-07-22T13:44:24.135Z,31.60
2017-07-22T13:46:51.895Z,31.50
2017-07-22T13:49:19.655Z,31.20
2017-07-22T13:51:47.445Z,31.10
2017-07-22T13:54:15.211Z,30.90
2017-07-22T13:56:43.049Z,31.20
2017-07-22T13:59:10.810Z,31.50
2017-07-22T14:01:38.572Z,31.60
2017-07-22T14:04:06.369Z,31.40
2017-07-22T14:06:34.321Z,31.30
2017-07-22T14:09:02.261Z,31.30
2017-07-22T14:11:30.094Z,31.20
2017-07-22T14:13:57.977Z,31.10
2017-07-22T14:16:25.906Z,31.40
2017-07-22T14:18:53.747Z,31.70
2017-07-22T14:21:21.677Z,31.40
2017-07-22T14:23:49.434Z,31.40
2017-07-22T14:26:17.287Z,31.30
2017-07-22T14:28:45.152Z,31.30
2017-07-22T14:31:12.977Z,31.40
2017-07-22T14:33:40.798Z,31.50
2017-07-22T14:36:08.675Z,31.50
2017-07-22T14:38:36.882Z,31.60
2017-07-22T14:41:04.706Z,31.60
2017-07-22T14:43:32.503Z,31.50
2017-07-22T14:46:00.327Z,31.30
2017-07-22T14:48:28.289Z,31.10
2017-07-22T14:50:56.243Z,31.10
2017-07-22T14:53:24.069Z,31.50
2017-07-22T14:55:52.621Z,31.90
2017-07-22T14:58:20.458Z,31.90
2017-07-22T15:00:48.291Z,32.00
2017-07-22T15:03:16.155Z,31.70
2017-07-22T15:05:44.006Z,31.30
2017-07-22T15:08:12.584Z,30.50
2017-07-22T15:10:41.197Z,30.50
2017-07-22T15:13:09.010Z,30.50
2017-07-22T15:15:36.874Z,30.60
2017-07-22T15:18:04.680Z,30.40
2017-07-22T15:20:32.481Z,30.30
2017-07-22T15:23:00.359Z,30.40
2017-07-22T15:25:28.113Z,30.50
2017-07-22T15:27:56.026Z,30.70
2017-07-22T15:30:23.825Z,30.80
2017-07-22T15:32:51.578Z,30.60
2017-07-22T15:35:20.412Z,30.60
2017-07-22T15:37:49.042Z,30.20
2017-07-22T15:40:16.800Z,30.20
2017-07-22T15:42:44.605Z,30.20
2017-07-22T15:45:12.478Z,30.30
2017-07-22T15:47:40.295Z,30.40
2017-07-22T15:50:08.059Z,30.40
2017-07-22T15:52:35.814Z,30.40
2017-07-22T15:55:03.611Z,30.20
2017-07-22T15:57:31.464Z,30.10
2017-07-22T15:59:59.273Z,30.10
2017-07-22T16:02:27.798Z,30.30
2017-07-22T16:04:55.570Z,30.20
2017-07-22T16:07:23.357Z,30.30
2017-07-22T16:09:51.106Z,30.30
2017-07-22T16:12:18.928Z,30.30
2017-07-22T16:14:46.690Z,30.40
2017-07-22T16:17:14.451Z,30.40
2017-07-22T16:19:42.238Z,30.10
2017-07-22T16:22:09.986Z,30.10
2017-07-22T16:24:37.809Z,30.00
2017-07-22T16:27:06.330Z,29.70
2017-07-22T16:29:34.079Z,29.70
2017-07-22T16:32:01.870Z,29.70
2017-07-22T16:34:30.115Z,29.60
2017-07-22T16:36:57.926Z,29.70
2017-07-22T16:39:25.710Z,29.70
2017-07-22T16:41:54.230Z,29.70
2017-07-22T16:44:22.014Z,29.70
2017-07-22T16:46:49.765Z,29.60
2017-07-22T16:49:17.586Z,29.50
2017-07-22T16:51:45.339Z,29.50
2017-07-22T16:54:13.859Z,29.20
2017-07-22T16:56:41.639Z,29.20
2017-07-22T16:59:09.397Z,29.20
2017-07-22T17:01:37.218Z,29.10
2017-07-22T17:04:04.993Z,29.10
2017-07-22T17:06:32.745Z,28.90
2017-07-22T17:09:00.530Z,28.80
2017-07-22T17:11:28.281Z,28.70
2017-07-22T17:13:56.396Z,28.60
2017-07-22T17:16:24.156Z,28.50
2017-07-22T17:18:51.906Z,28.40
2017-07-22T17:21:19.842Z,28.40
2017-07-22T17:23:47.820Z,28.40
2017-07-22T17:26:15.925Z,28.40
2017-07-22T17:28:43.681Z,28.20
2017-07-22T17:31:11.558Z,28.10
2017-07-22T17:33:40.128Z,28.20
2017-07-22T17:36:08.857Z,28.10
2017-07-22T17:38:36.693Z,28.10
2017-07-22T17:41:04.509Z,28.10
2017-07-22T17:43:32.274Z,28.10
2017-07-22T17:46:00.064Z,28.10
2017-07-22T17:48:27.829Z,28.10
2017-07-22T17:50:55.698Z,28.00
2017-07-22T17:53:24.224Z,27.80
2017-07-22T17:55:51.993Z,27.80
2017-07-22T17:58:19.788Z,27.80
2017-07-22T18:00:47.546Z,27.70
2017-07-22T18:03:15.363Z,27.70
2017-07-22T18:05:43.511Z,27.60
2017-07-22T18:08:12.422Z,27.70
2017-07-22T18:10:40.239Z,27.60
2017-07-22T18:13:08.104Z,27.60
2017-07-22T18:15:35.947Z,27.50
2017-07-22T18:18:03.697Z,27.50
2017-07-22T18:20:31.566Z,27.40
2017-07-22T18:22:59.345Z,27.30
2017-07-22T18:25:27.098Z,27.30
2017-07-22T18:27:54.947Z,27.20
2017-07-22T18:30:22.857Z,27.20
2017-07-22T18:32:51.378Z,27.00
2017-07-22T18:35:19.248Z,27.00
2017-07-22T18:37:47.028Z,27.10
2017-07-22T18:40:14.852Z,27.00
2017-07-22T18:42:42.635Z,27.00
2017-07-22T18:45:10.413Z,27.00
2017-07-22T18:47:38.245Z,27.00
2017-07-22T18:50:06.010Z,27.00
2017-07-22T18:52:33.817Z,26.90
2017-07-22T18:55:02.073Z,26.80
2017-07-22T18:57:29.911Z,26.70
2017-07-22T18:59:57.822Z,26.80
2017-07-22T19:02:25.616Z,26.70
2017-07-22T19:04:53.437Z,26.80
2017-07-22T19:07:21.290Z,26.70
2017-07-22T19:09:49.317Z,26.60
2017-07-22T19:12:17.073Z,26.60
2017-07-22T19:14:44.897Z,26.60
2017-07-22T19:17:12.901Z,26.60
2017-07-22T19:19:40.682Z,26.60
2017-07-22T19:22:08.586Z,26.50
2017-07-22T19:24:36.387Z,26.40
2017-07-22T19:27:04.208Z,26.50
2017-07-22T19:29:32.065Z,26.40
2017-07-22T19:31:59.893Z,26.30
2017-07-22T19:34:27.802Z,26.30
2017-07-22T19:36:55.570Z,26.40
2017-07-22T19:39:23.335Z,26.40
2017-07-22T19:41:51.119Z,26.40
2017-07-22T19:44:18.878Z,26.30
2017-07-22T19:46:47.465Z,26.20
2017-07-22T19:49:15.218Z,26.20
2017-07-22T19:51:43.749Z,26.20
2017-07-22T19:54:14.374Z,26.10
2017-07-22T19:56:42.198Z,26.00
2017-07-22T19:59:10.011Z,25.90
2017-07-22T20:01:37.766Z,25.80
2017-07-22T20:04:05.535Z,25.80
2017-07-22T20:06:33.325Z,25.80
2017-07-22T20:09:01.845Z,25.60
2017-07-22T20:11:29.859Z,25.60
2017-07-22T20:13:58.433Z,25.40
2017-07-22T20:16:26.187Z,25.40
2017-07-22T20:18:53.987Z,25.30
2017-07-22T20:21:22.642Z,25.20
2017-07-22T20:23:50.459Z,25.10
2017-07-22T20:26:18.237Z,25.10
2017-07-22T20:28:46.030Z,25.10
2017-07-22T20:31:13.833Z,25.00
2017-07-22T20:33:41.599Z,24.90
2017-07-22T20:36:09.431Z,24.80
2017-07-22T20:38:37.947Z,24.50
2017-07-22T20:41:05.697Z,24.50
2017-07-22T20:43:33.705Z,24.50
2017-07-22T20:46:01.665Z,24.30
2017-07-22T20:48:29.523Z,24.30
2017-07-22T20:50:57.418Z,24.30
2017-07-22T20:53:25.285Z,24.10
2017-07-22T20:55:53.122Z,24.00
2017-07-22T20:58:20.915Z,24.10
2017-07-22T21:00:48.864Z,24.10
2017-07-22T21:03:16.669Z,24.00
2017-07-22T21:05:44.546Z,24.00
2017-07-22T21:08:12.468Z,23.70
2017-07-22T21:10:40.262Z,23.40
2017-07-22T21:13:08.364Z,23.10
2017-07-22T21:15:36.250Z,22.80
2017-07-22T21:18:04.131Z,22.50
2017-07-22T21:20:32.811Z,22.20
2017-07-22T21:23:00.776Z,22.10
2017-07-22T21:25:28.735Z,22.10
2017-07-22T21:27:56.524Z,22.20
2017-07-22T21:30:25.166Z,22.20
2017-07-22T21:32:53.003Z,22.20
2017-07-22T21:35:20.752Z,22.30
2017-07-22T21:37:48.629Z,22.40
2017-07-22T21:40:16.436Z,22.50
2017-07-22T21:42:45.065Z,22.50
2017-07-22T21:45:12.903Z,22.50
2017-07-22T21:47:40.714Z,22.50
2017-07-22T21:50:08.529Z,22.40
2017-07-22T21:52:37.055Z,22.30
2017-07-22T21:55:04.817Z,22.30
2017-07-22T21:57:32.604Z,22.30
2017-07-22T22:00:00.618Z,22.40
2017-07-22T22:02:28.511Z,22.30
2017-07-22T22:04:56.270Z,22.30
2017-07-22T22:07:24.576Z,22.20
2017-07-22T22:09:52.542Z,22.20
2017-07-22T22:12:20.511Z,22.10
2017-07-22T22:14:50.083Z,21.90
2017-07-22T22:17:17.922Z,21.90
2017-07-22T22:19:45.711Z,21.90
2017-07-22T22:22:13.594Z,21.80
2017-07-22T22:24:42.130Z,21.70
2017-07-22T22:27:09.941Z,21.70
2017-07-22T22:29:37.706Z,21.70
2017-07-22T22:32:05.470Z,21.60
2017-07-22T22:34:33.266Z,21.70
2017-07-22T22:37:01.030Z,21.80
2017-07-22T22:39:28.846Z,21.80
2017-07-22T22:41:56.601Z,21.70
2017-07-22T22:44:24.358Z,21.70
2017-07-22T22:46:52.146Z,21.60
2017-07-22T22:49:20.697Z,21.60
2017-07-22T22:51:48.511Z,21.50
2017-07-22T22:54:16.270Z,21.50
2017-07-22T22:56:44.031Z,21.40
2017-07-22T22:59:11.829Z,21.40
2017-07-22T23:01:39.606Z,21.30
2017-07-22T23:04:07.418Z,21.20
2017-07-22T23:06:35.171Z,21.10
2017-07-22T23:09:03.706Z,20.90
2017-07-22T23:11:31.491Z,20.90
2017-07-22T23:13:59.253Z,20.90
2017-07-22T23:16:27.069Z,20.90
2017-07-22T23:18:54.826Z,20.80
2017-07-22T23:21:22.602Z,20.70
2017-07-22T23:23:50.390Z,20.60
2017-07-22T23:26:18.150Z,20.60
2017-07-22T23:28:45.982Z,20.60
2017-07-22T23:31:13.745Z,20.60
2017-07-22T23:33:41.517Z,20.50
2017-07-22T23:36:09.308Z,20.50
2017-07-22T23:38:37.064Z,20.40
2017-07-22T23:41:04.881Z,20.40
2017-07-22T23:43:32.646Z,20.30
2017-07-22T23:46:00.422Z,20.30
2017-07-22T23:48:28.218Z,20.20
2017-07-22T23:50:55.996Z,20.20
2017-07-22T23:53:24.578Z,20.10
2017-07-22T23:55:52.338Z,20.00
2017-07-22T23:58:20.870Z,20.10
